createdAt,value
2023-05-18T00:01:24.334Z,12.40
2023-05-18T00:03:54.297Z,12.40
2023-05-18T00:06:22.707Z,12.40
2023-05-18T00:08:49.690Z,12.30
2023-05-18T00:11:17.823Z,12.30
2023-05-18T00:13:45.008Z,12.30
2023-05-18T00:16:16.145Z,12.40
2023-05-18T00:18:45.300Z,12.30
2023-05-18T00:21:12.438Z,12.30
2023-05-18T00:23:39.638Z,12.30
2023-05-18T00:26:06.712Z,12.30
2023-05-18T00:28:33.898Z,12.30
2023-05-18T00:31:01.016Z,12.30
2023-05-18T00:33:28.163Z,12.30
2023-05-18T00:35:57.334Z,12.20
2023-05-18T00:38:24.694Z,12.20
2023-05-18T00:40:51.853Z,12.10
2023-05-18T00:43:19.074Z,12.20
2023-05-18T00:45:46.319Z,12.20
2023-05-18T00:48:13.457Z,12.20
2023-05-18T00:50:40.848Z,12.20
2023-05-18T00:53:10.755Z,12.10
2023-05-18T00:55:39.843Z,11.90
2023-05-18T00:58:07.736Z,11.90
2023-05-18T01:00:37.900Z,11.80
2023-05-18T01:03:05.705Z,12.10
2023-05-18T01:05:32.972Z,12.00
2023-05-18T01:08:00.055Z,11.90
2023-05-18T01:10:28.008Z,11.80
2023-05-18T01:13:01.463Z,11.90
2023-05-18T01:15:37.372Z,12.00
2023-05-18T01:18:31.799Z,12.10
2023-05-18T01:21:11.288Z,12.00
2023-05-18T01:24:06.430Z,11.80
2023-05-18T01:26:41.562Z,11.80
2023-05-18T01:29:12.875Z,11.90
2023-05-18T01:31:40.371Z,11.80
2023-05-18T01:34:09.042Z,11.70
2023-05-18T01:36:36.293Z,11.80
2023-05-18T01:39:03.893Z,11.90
2023-05-18T01:41:34.941Z,11.90
2023-05-18T01:44:29.524Z,11.80
2023-05-18T01:46:59.596Z,11.70
2023-05-18T01:49:42.644Z,11.70
2023-05-18T01:52:14.807Z,11.80
2023-05-18T01:54:45.112Z,11.80
2023-05-18T01:57:12.453Z,11.80
2023-05-18T01:59:39.846Z,11.70
2023-05-18T02:02:07.045Z,11.60
2023-05-18T02:04:35.432Z,11.70
2023-05-18T02:07:03.250Z,11.80
2023-05-18T02:09:30.171Z,11.60
2023-05-18T02:11:57.331Z,11.50
2023-05-18T02:14:24.356Z,11.50
2023-05-18T02:16:53.413Z,11.40
2023-05-18T02:19:21.411Z,11.50
2023-05-18T02:21:49.019Z,11.40
2023-05-18T02:24:17.808Z,11.40
2023-05-18T02:26:44.959Z,11.40
2023-05-18T02:29:12.138Z,11.50
2023-05-18T02:31:39.466Z,11.50
2023-05-18T02:34:06.870Z,11.40
2023-05-18T02:36:40.339Z,11.30
2023-05-18T02:39:13.569Z,11.30
2023-05-18T02:41:40.666Z,11.30
2023-05-18T02:44:08.125Z,11.40
2023-05-18T02:46:35.188Z,11.40
2023-05-18T02:49:02.278Z,11.30
2023-05-18T02:51:30.425Z,11.20
2023-05-18T02:53:57.684Z,11.30
2023-05-18T02:56:24.871Z,11.10
2023-05-18T02:58:57.861Z,11.20
2023-05-18T03:01:29.128Z,11.20
2023-05-18T03:03:58.861Z,11.10
2023-05-18T03:06:27.021Z,11.20
2023-05-18T03:08:56.923Z,11.10
2023-05-18T03:11:24.930Z,11.10
2023-05-18T03:13:52.154Z,11.20
2023-05-18T03:16:19.238Z,11.20
2023-05-18T03:18:46.366Z,11.20
2023-05-18T03:21:16.760Z,11.10
2023-05-18T03:23:43.966Z,11.20
2023-05-18T03:26:12.515Z,11.20
2023-05-18T03:28:39.795Z,11.20
2023-05-18T03:31:06.962Z,11.10
2023-05-18T03:33:34.267Z,11.10
2023-05-18T03:36:04.280Z,11.30
2023-05-18T03:38:31.485Z,11.20
2023-05-18T03:40:58.676Z,11.10
2023-05-18T03:43:26.197Z,11.00
2023-05-18T03:45:53.737Z,11.00
2023-05-18T03:48:21.842Z,11.00
2023-05-18T03:50:49.085Z,11.10
2023-05-18T03:53:19.859Z,10.90
2023-05-18T03:55:51.761Z,10.90
2023-05-18T03:58:21.460Z,10.90
2023-05-18T04:00:49.660Z,11.00
2023-05-18T04:03:17.168Z,10.90
2023-05-18T04:05:44.955Z,10.90
2023-05-18T04:08:14.866Z,11.00
2023-05-18T04:10:43.384Z,10.90
2023-05-18T04:13:11.823Z,10.90
2023-05-18T04:15:39.420Z,10.90
2023-05-18T04:18:06.823Z,10.90
2023-05-18T04:20:34.860Z,11.00
2023-05-18T04:23:01.789Z,11.00
2023-05-18T04:25:29.048Z,11.00
2023-05-18T04:27:57.440Z,11.00
2023-05-18T04:30:26.671Z,11.10
2023-05-18T04:32:54.913Z,11.20
2023-05-18T04:35:22.235Z,11.10
2023-05-18T04:37:49.368Z,11.20
2023-05-18T04:40:17.531Z,11.20
2023-05-18T04:42:48.279Z,11.20
2023-05-18T04:45:17.903Z,11.00
2023-05-18T04:47:53.434Z,11.10
2023-05-18T04:50:23.905Z,11.20
2023-05-18T04:52:52.519Z,11.20
2023-05-18T04:55:29.185Z,11.20
2023-05-18T04:57:57.113Z,11.20
2023-05-18T05:00:28.081Z,11.20
2023-05-18T05:02:57.000Z,11.10
2023-05-18T05:05:25.439Z,11.20
2023-05-18T05:07:54.469Z,11.30
2023-05-18T05:10:22.217Z,11.30
2023-05-18T05:12:51.130Z,11.20
2023-05-18T05:15:19.059Z,11.30
2023-05-18T05:17:50.686Z,11.30
2023-05-18T05:20:17.905Z,11.40
2023-05-18T05:22:45.104Z,11.50
2023-05-18T05:25:12.375Z,11.70
2023-05-18T05:27:39.695Z,11.90
2023-05-18T05:30:07.486Z,12.00
2023-05-18T05:32:37.106Z,12.10
2023-05-18T05:35:04.759Z,12.10
2023-05-18T05:37:31.806Z,12.30
2023-05-18T05:39:59.588Z,12.20
2023-05-18T05:42:26.937Z,12.20
2023-05-18T05:44:53.910Z,12.20
2023-05-18T05:47:21.879Z,12.20
2023-05-18T05:49:49.319Z,12.30
2023-05-18T05:52:16.380Z,12.50
2023-05-18T05:54:44.234Z,12.40
2023-05-18T05:57:13.834Z,12.40
2023-05-18T05:59:45.678Z,12.40
2023-05-18T06:02:12.804Z,12.40
2023-05-18T06:04:40.545Z,12.40
2023-05-18T06:07:07.560Z,12.60
2023-05-18T06:09:35.805Z,12.50
2023-05-18T06:12:02.826Z,12.60
2023-05-18T06:14:29.858Z,12.50
2023-05-18T06:16:57.128Z,12.60
2023-05-18T06:19:24.244Z,12.60
2023-05-18T06:21:51.320Z,12.40
2023-05-18T06:24:19.220Z,12.50
2023-05-18T06:26:46.247Z,12.50
2023-05-18T06:29:13.776Z,12.40
2023-05-18T06:31:41.037Z,12.40
2023-05-18T06:34:08.146Z,12.30
2023-05-18T06:36:35.075Z,12.50
2023-05-18T06:39:02.074Z,12.60
2023-05-18T06:41:29.025Z,12.70
2023-05-18T06:43:56.776Z,12.60
2023-05-18T06:46:24.803Z,12.40
2023-05-18T06:48:52.292Z,12.40
2023-05-18T06:51:19.571Z,12.50
2023-05-18T06:53:46.577Z,12.60
2023-05-18T06:56:13.821Z,12.60
2023-05-18T06:58:43.544Z,12.60
2023-05-18T07:01:11.555Z,12.60
2023-05-18T07:03:38.647Z,12.70
2023-05-18T07:06:06.217Z,12.60
2023-05-18T07:08:33.297Z,12.80
2023-05-18T07:11:02.514Z,12.80
2023-05-18T07:13:29.933Z,12.80
2023-05-18T07:15:57.217Z,13.00
2023-05-18T07:18:24.201Z,13.20
2023-05-18T07:20:51.122Z,13.30
2023-05-18T07:23:18.262Z,13.40
2023-05-18T07:25:45.394Z,13.60
2023-05-18T07:28:12.277Z,13.90
2023-05-18T07:30:39.963Z,13.90
2023-05-18T07:33:07.141Z,14.00
2023-05-18T07:35:34.331Z,14.10
2023-05-18T07:38:01.481Z,14.30
2023-05-18T07:40:29.930Z,14.10
2023-05-18T07:42:57.243Z,14.30
2023-05-18T07:45:24.351Z,14.20
2023-05-18T07:47:51.437Z,14.40
2023-05-18T07:50:19.141Z,14.60
2023-05-18T07:52:46.705Z,14.60
2023-05-18T07:55:14.028Z,14.60
2023-05-18T07:57:40.948Z,14.70
2023-05-18T08:00:09.910Z,14.90
2023-05-18T08:02:37.841Z,15.00
2023-05-18T08:05:05.480Z,14.90
2023-05-18T08:07:34.057Z,15.10
2023-05-18T08:10:01.035Z,15.20
2023-05-18T08:12:29.896Z,15.30
2023-05-18T08:14:57.199Z,15.50
2023-05-18T08:17:24.468Z,15.50
2023-05-18T08:19:54.022Z,15.70
2023-05-18T08:22:22.717Z,15.80
2023-05-18T08:24:52.999Z,15.80
2023-05-18T08:27:21.304Z,16.00
2023-05-18T08:29:49.289Z,16.20
2023-05-18T08:32:18.959Z,16.40
2023-05-18T08:34:46.920Z,16.60
2023-05-18T08:37:14.929Z,16.70
2023-05-18T08:39:42.038Z,16.80
2023-05-18T08:42:42.024Z,16.80
2023-05-18T08:45:22.596Z,17.00
2023-05-18T08:47:51.716Z,17.30
2023-05-18T08:50:28.515Z,17.60
2023-05-18T08:52:59.460Z,17.70
2023-05-18T08:55:28.622Z,17.70
2023-05-18T08:58:00.221Z,17.90
2023-05-18T09:00:28.596Z,17.90
2023-05-18T09:02:56.532Z,17.80
2023-05-18T09:05:24.455Z,18.40
2023-05-18T09:07:52.006Z,18.50
2023-05-18T09:10:19.282Z,18.80
2023-05-18T09:12:48.301Z,18.70
2023-05-18T09:15:18.028Z,18.70
2023-05-18T09:17:45.298Z,18.80
2023-05-18T09:20:15.580Z,19.30
2023-05-18T09:22:46.051Z,19.40
2023-05-18T09:25:16.642Z,19.30
2023-05-18T09:27:44.417Z,19.50
2023-05-18T09:30:13.740Z,19.20
2023-05-18T09:32:40.992Z,19.70
2023-05-18T09:35:09.436Z,19.70
2023-05-18T09:37:36.577Z,20.00
2023-05-18T09:40:06.928Z,20.40
2023-05-18T09:42:38.141Z,20.50
2023-05-18T09:45:15.685Z,20.20
2023-05-18T09:47:42.934Z,20.60
2023-05-18T09:50:10.685Z,20.90
2023-05-18T09:52:45.110Z,21.00
2023-05-18T09:55:15.803Z,21.20
2023-05-18T09:57:48.070Z,21.20
2023-05-18T10:00:17.229Z,21.00
2023-05-18T10:02:49.444Z,21.20
2023-05-18T10:05:23.878Z,21.10
2023-05-18T10:07:51.746Z,21.10
2023-05-18T10:10:23.598Z,21.00
2023-05-18T10:12:52.582Z,20.90
2023-05-18T10:15:22.966Z,20.90
2023-05-18T10:17:51.914Z,20.60
2023-05-18T10:20:25.288Z,20.90
2023-05-18T10:22:54.821Z,20.60
2023-05-18T10:25:25.210Z,20.90
2023-05-18T10:27:57.647Z,21.10
2023-05-18T10:30:26.506Z,21.00
2023-05-18T10:32:57.565Z,21.20
2023-05-18T10:35:29.212Z,21.60
2023-05-18T10:37:59.956Z,22.10
2023-05-18T10:40:30.589Z,21.70
2023-05-18T10:43:00.951Z,21.90
2023-05-18T10:45:28.670Z,21.80
2023-05-18T10:47:59.469Z,21.60
2023-05-18T10:50:27.207Z,21.40
2023-05-18T10:52:55.746Z,21.50
2023-05-18T10:55:23.214Z,21.90
2023-05-18T10:57:56.992Z,22.20
2023-05-18T11:00:28.319Z,22.80
2023-05-18T11:02:56.685Z,22.80
2023-05-18T11:05:25.593Z,23.20
2023-05-18T11:08:05.709Z,23.20
2023-05-18T11:10:41.064Z,22.90
2023-05-18T11:13:14.380Z,22.70
2023-05-18T11:15:54.018Z,22.80
2023-05-18T11:18:34.189Z,23.00
2023-05-18T11:21:01.725Z,22.70
2023-05-18T11:23:32.896Z,22.60
2023-05-18T11:26:10.975Z,22.50
2023-05-18T11:28:43.789Z,22.70
2023-05-18T11:31:18.478Z,23.10
2023-05-18T11:33:45.540Z,23.00
2023-05-18T11:36:14.734Z,22.70
2023-05-18T11:38:53.885Z,23.40
2023-05-18T11:41:44.603Z,23.80
2023-05-18T11:44:21.617Z,24.40
2023-05-18T11:46:58.486Z,24.70
2023-05-18T11:49:30.048Z,25.10
2023-05-18T11:52:19.844Z,24.70
2023-05-18T11:54:49.457Z,25.00
2023-05-18T11:57:18.629Z,24.80
2023-05-18T11:59:55.639Z,24.70
2023-05-18T12:02:25.682Z,24.70
2023-05-18T12:04:54.865Z,25.10
2023-05-18T12:07:22.685Z,24.90
2023-05-18T12:09:49.795Z,25.00
2023-05-18T12:12:20.423Z,25.20
2023-05-18T12:14:59.648Z,25.00
2023-05-18T12:17:49.821Z,25.00
2023-05-18T12:20:19.458Z,25.10
2023-05-18T12:22:53.290Z,25.10
2023-05-18T12:25:23.529Z,25.40
2023-05-18T12:27:52.596Z,25.60
2023-05-18T12:30:35.007Z,25.80
2023-05-18T12:33:04.054Z,26.10
2023-05-18T12:35:32.370Z,25.80
2023-05-18T12:38:00.895Z,25.80
2023-05-18T12:40:37.737Z,25.80
2023-05-18T12:43:04.773Z,26.10
2023-05-18T12:45:33.667Z,26.00
2023-05-18T12:48:08.032Z,26.30
2023-05-18T12:50:37.079Z,26.40
2023-05-18T12:53:04.469Z,26.20
2023-05-18T12:55:34.051Z,26.90
2023-05-18T12:58:16.730Z,27.00
2023-05-18T13:00:45.671Z,27.00
2023-05-18T13:03:16.221Z,27.10
2023-05-18T13:05:45.945Z,26.70
2023-05-18T13:08:21.997Z,27.00
2023-05-18T13:10:57.972Z,27.30
2023-05-18T13:13:32.929Z,27.30
2023-05-18T13:16:00.518Z,26.40
2023-05-18T13:18:28.638Z,26.60
2023-05-18T13:20:57.389Z,26.60
2023-05-18T13:23:29.890Z,26.50
2023-05-18T13:25:58.909Z,26.40
2023-05-18T13:28:27.650Z,27.10
2023-05-18T13:30:54.801Z,27.10
2023-05-18T13:33:25.290Z,27.40
2023-05-18T13:35:52.366Z,26.80
2023-05-18T13:38:19.420Z,26.70
2023-05-18T13:40:47.126Z,26.50
2023-05-18T13:43:14.254Z,26.00
2023-05-18T13:45:41.927Z,26.40
2023-05-18T13:48:11.149Z,26.70
2023-05-18T13:50:39.903Z,27.20
2023-05-18T13:53:07.683Z,27.00
2023-05-18T13:55:35.601Z,27.10
2023-05-18T13:58:03.254Z,26.80
2023-05-18T14:00:33.986Z,26.80
2023-05-18T14:03:01.521Z,27.20
2023-05-18T14:05:29.114Z,27.30
2023-05-18T14:07:56.898Z,27.40
2023-05-18T14:10:23.992Z,27.40
2023-05-18T14:12:51.102Z,27.50
2023-05-18T14:15:18.184Z,27.50
2023-05-18T14:17:45.457Z,26.90
2023-05-18T14:20:13.222Z,26.70
2023-05-18T14:22:40.589Z,26.90
2023-05-18T14:25:08.383Z,27.00
2023-05-18T14:27:35.518Z,26.90
2023-05-18T14:30:02.656Z,27.10
2023-05-18T14:32:29.776Z,27.00
2023-05-18T14:34:58.163Z,27.40
2023-05-18T14:37:25.825Z,26.80
2023-05-18T14:39:53.342Z,26.70
2023-05-18T14:42:20.690Z,27.30
2023-05-18T14:44:47.973Z,27.10
2023-05-18T14:47:16.298Z,27.10
2023-05-18T14:49:43.281Z,26.90
2023-05-18T14:52:10.427Z,27.00
2023-05-18T14:54:38.281Z,26.80
2023-05-18T14:57:05.446Z,26.50
2023-05-18T14:59:33.153Z,26.70
2023-05-18T15:02:03.317Z,26.70
2023-05-18T15:04:31.045Z,26.40
2023-05-18T15:06:58.145Z,26.90
2023-05-18T15:09:27.076Z,26.90
2023-05-18T15:11:54.155Z,26.40
2023-05-18T15:14:21.190Z,26.20
2023-05-18T15:16:48.450Z,25.90
2023-05-18T15:19:16.583Z,25.90
2023-05-18T15:21:45.114Z,26.00
2023-05-18T15:24:12.144Z,26.20
2023-05-18T15:26:39.288Z,26.30
2023-05-18T15:29:06.403Z,26.30
2023-05-18T15:31:34.746Z,26.00
2023-05-18T15:34:01.901Z,26.10
2023-05-18T15:36:31.870Z,26.00
2023-05-18T15:38:59.720Z,26.30
2023-05-18T15:41:33.042Z,25.80
2023-05-18T15:44:02.024Z,25.90
2023-05-18T15:46:32.119Z,25.80
2023-05-18T15:48:59.374Z,25.90
2023-05-18T15:51:26.453Z,26.00
2023-05-18T15:53:53.529Z,26.00
2023-05-18T15:56:22.086Z,26.00
2023-05-18T15:58:49.606Z,26.20
2023-05-18T16:01:17.564Z,26.30
2023-05-18T16:03:45.134Z,26.20
2023-05-18T16:06:13.515Z,25.80
2023-05-18T16:08:40.670Z,25.70
2023-05-18T16:11:08.295Z,25.80
2023-05-18T16:13:36.139Z,25.80
2023-05-18T16:16:03.711Z,25.60
2023-05-18T16:18:39.612Z,25.10
2023-05-18T16:21:06.773Z,25.10
2023-05-18T16:23:34.123Z,25.00
2023-05-18T16:26:05.345Z,25.00
2023-05-18T16:28:32.788Z,24.80
2023-05-18T16:31:00.117Z,24.40
2023-05-18T16:33:28.033Z,24.40
2023-05-18T16:35:56.027Z,24.40
2023-05-18T16:38:23.250Z,24.00
2023-05-18T16:40:50.361Z,24.00
2023-05-18T16:43:17.445Z,23.80
2023-05-18T16:45:44.514Z,24.10
2023-05-18T16:48:11.451Z,24.30
2023-05-18T16:50:38.579Z,24.30
2023-05-18T16:53:05.466Z,24.20
2023-05-18T16:55:32.686Z,23.80
2023-05-18T16:57:59.759Z,23.50
2023-05-18T17:00:27.061Z,23.30
2023-05-18T17:02:54.219Z,23.30
2023-05-18T17:05:24.768Z,23.20
2023-05-18T17:07:52.754Z,23.10
2023-05-18T17:10:20.160Z,23.00
2023-05-18T17:12:47.976Z,22.60
2023-05-18T17:15:16.509Z,22.20
2023-05-18T17:17:44.247Z,21.90
2023-05-18T17:20:12.007Z,21.70
2023-05-18T17:22:39.141Z,21.70
2023-05-18T17:25:06.650Z,21.40
2023-05-18T17:27:33.902Z,21.00
2023-05-18T17:30:01.041Z,21.20
2023-05-18T17:32:28.098Z,21.10
2023-05-18T17:34:54.999Z,21.00
2023-05-18T17:37:22.036Z,21.10
2023-05-18T17:39:49.121Z,20.80
2023-05-18T17:42:17.473Z,20.80
2023-05-18T17:44:47.272Z,20.90
2023-05-18T17:47:14.835Z,20.70
2023-05-18T17:49:41.869Z,20.80
2023-05-18T17:52:12.661Z,20.60
2023-05-18T17:54:40.000Z,20.30
2023-05-18T17:57:07.198Z,20.00
2023-05-18T17:59:37.245Z,20.20
2023-05-18T18:02:06.901Z,20.10
2023-05-18T18:04:34.880Z,20.10
2023-05-18T18:07:02.096Z,19.70
2023-05-18T18:09:29.418Z,19.80
2023-05-18T18:11:58.266Z,19.60
2023-05-18T18:14:25.177Z,19.50
2023-05-18T18:16:52.321Z,19.60
2023-05-18T18:19:19.311Z,19.50
2023-05-18T18:21:46.337Z,19.40
2023-05-18T18:24:14.462Z,19.40
2023-05-18T18:26:41.912Z,19.60
2023-05-18T18:29:09.058Z,19.50
2023-05-18T18:31:36.155Z,19.40
2023-05-18T18:34:03.970Z,19.50
2023-05-18T18:36:31.938Z,19.30
2023-05-18T18:38:59.167Z,19.30
2023-05-18T18:41:26.408Z,19.30
2023-05-18T18:43:54.916Z,19.10
2023-05-18T18:46:21.927Z,19.10
2023-05-18T18:48:48.988Z,19.00
2023-05-18T18:51:16.400Z,18.80
2023-05-18T18:53:43.643Z,18.80
2023-05-18T18:56:10.706Z,18.80
2023-05-18T18:58:41.888Z,18.60
2023-05-18T19:01:09.392Z,18.40
2023-05-18T19:03:36.768Z,18.30
2023-05-18T19:06:03.985Z,18.30
2023-05-18T19:08:31.751Z,18.20
2023-05-18T19:10:59.706Z,18.10
2023-05-18T19:13:26.891Z,18.00
2023-05-18T19:15:54.646Z,18.10
2023-05-18T19:18:22.633Z,17.70
2023-05-18T19:20:49.736Z,17.60
2023-05-18T19:23:17.017Z,17.40
2023-05-18T19:25:44.044Z,17.30
2023-05-18T19:28:11.061Z,17.50
2023-05-18T19:30:38.675Z,17.40
2023-05-18T19:33:06.204Z,17.30
2023-05-18T19:35:33.814Z,17.30
2023-05-18T19:38:02.476Z,17.30
2023-05-18T19:40:29.964Z,17.10
2023-05-18T19:42:59.681Z,17.00
2023-05-18T19:45:26.823Z,17.00
2023-05-18T19:47:54.034Z,17.00
2023-05-18T19:50:21.298Z,17.20
2023-05-18T19:52:49.547Z,17.20
2023-05-18T19:55:17.607Z,17.00
2023-05-18T19:57:44.517Z,17.00
2023-05-18T20:00:18.951Z,16.80
2023-05-18T20:02:46.931Z,16.80
2023-05-18T20:05:18.878Z,16.70
2023-05-18T20:07:46.585Z,16.80
2023-05-18T20:10:19.443Z,16.90
2023-05-18T20:12:48.903Z,16.90
2023-05-18T20:15:16.217Z,16.80
2023-05-18T20:17:43.378Z,16.70
2023-05-18T20:20:10.537Z,16.80
2023-05-18T20:22:39.241Z,16.70
2023-05-18T20:25:07.328Z,16.60
2023-05-18T20:27:34.580Z,16.50
2023-05-18T20:30:01.819Z,16.50
2023-05-18T20:32:29.702Z,16.50
2023-05-18T20:34:56.976Z,16.40
2023-05-18T20:37:26.247Z,16.20
2023-05-18T20:39:54.333Z,16.20
2023-05-18T20:42:22.512Z,16.10
2023-05-18T20:44:51.904Z,16.00
2023-05-18T20:47:20.794Z,15.90
2023-05-18T20:49:48.667Z,15.80
2023-05-18T20:52:15.846Z,16.00
2023-05-18T20:54:44.647Z,15.80
2023-05-18T20:57:11.947Z,16.00
2023-05-18T20:59:39.101Z,15.90
2023-05-18T21:02:07.057Z,15.80
2023-05-18T21:04:34.929Z,15.70
2023-05-18T21:07:02.159Z,15.80
2023-05-18T21:09:31.406Z,15.70
2023-05-18T21:11:58.651Z,15.70
2023-05-18T21:14:25.653Z,15.70
2023-05-18T21:16:53.092Z,15.50
2023-05-18T21:19:20.391Z,15.50
2023-05-18T21:21:48.199Z,15.40
2023-05-18T21:24:16.771Z,15.40
2023-05-18T21:26:43.855Z,15.40
2023-05-18T21:29:11.194Z,15.30
2023-05-18T21:31:38.925Z,15.30
2023-05-18T21:34:06.748Z,15.30
2023-05-18T21:36:34.457Z,15.20
2023-05-18T21:39:02.353Z,15.00
2023-05-18T21:41:29.420Z,14.90
2023-05-18T21:43:57.800Z,14.90
2023-05-18T21:46:25.421Z,15.00
2023-05-18T21:48:52.452Z,14.90
2023-05-18T21:51:19.693Z,14.80
2023-05-18T21:53:46.930Z,14.80
2023-05-18T21:56:14.100Z,14.80
2023-05-18T21:58:43.432Z,14.80
2023-05-18T22:01:10.648Z,14.70
2023-05-18T22:03:38.537Z,14.60
2023-05-18T22:06:05.518Z,14.70
2023-05-18T22:08:32.429Z,14.70
2023-05-18T22:10:59.358Z,14.60
2023-05-18T22:13:26.510Z,14.70
2023-05-18T22:15:53.397Z,14.70
2023-05-18T22:18:21.114Z,14.60
2023-05-18T22:20:48.137Z,14.40
2023-05-18T22:23:15.178Z,14.30
2023-05-18T22:25:42.090Z,14.50
2023-05-18T22:28:08.972Z,14.40
2023-05-18T22:30:36.924Z,14.40
2023-05-18T22:33:04.186Z,14.30
2023-05-18T22:35:31.737Z,14.30
2023-05-18T22:37:58.922Z,14.20
2023-05-18T22:40:26.154Z,14.40
2023-05-18T22:42:55.038Z,14.30
2023-05-18T22:45:22.845Z,14.30
2023-05-18T22:47:50.190Z,14.30
2023-05-18T22:50:17.399Z,14.30
2023-05-18T22:52:46.726Z,14.10
2023-05-18T22:55:14.032Z,14.00
2023-05-18T22:57:42.110Z,14.10
2023-05-18T23:00:10.777Z,14.00
2023-05-18T23:02:41.913Z,13.80
2023-05-18T23:05:09.598Z,14.00
2023-05-18T23:07:37.860Z,14.20
2023-05-18T23:10:06.561Z,14.10
2023-05-18T23:12:33.759Z,14.10
2023-05-18T23:15:04.658Z,14.00
2023-05-18T23:17:32.764Z,14.10
2023-05-18T23:20:07.705Z,14.00
2023-05-18T23:22:35.724Z,13.90
2023-05-18T23:25:04.785Z,13.90
2023-05-18T23:27:32.001Z,13.80
2023-05-18T23:29:59.078Z,13.80
2023-05-18T23:32:26.835Z,13.90
2023-05-18T23:34:56.264Z,13.80
2023-05-18T23:37:24.855Z,13.80
2023-05-18T23:39:52.983Z,13.70
2023-05-18T23:42:20.912Z,13.70
2023-05-18T23:44:48.953Z,13.30
2023-05-18T23:47:16.827Z,13.20
2023-05-18T23:49:45.669Z,13.20
2023-05-18T23:52:13.743Z,13.20
2023-05-18T23:54:41.384Z,13.10
2023-05-18T23:57:08.998Z,13.10
2023-05-18T23:59:37.205Z,12.90
